If you wish to contribute or participate in the discussions about articles you are invited to join SKYbrary as a registered user

 Actions

Aberdeen Dyce Airport

From SKYbrary Wiki

EGPD /
Revision as of 15:50, 22 March 2010 by Editor1 (talk | contribs) (Created page with '{{Airport |Airport_Name=Aberdeen Dyce Airport |ICAO_Region=EUR |ICAO_Territory=EG |Location=Aberdeen, Scotland, United Kingdom |Coordinates=57° 12′ 12″ N, 2° 11′ 87″ W …')
(diff) ← Older revision | Latest revision (diff) | Newer revision → (diff)
Airport
ICAO: EGPD
Summary
Name Aberdeen Dyce Airport
Region Europe
Territory United Kingdom GB.gif
Location Aberdeen, Scotland, United Kingdom
Serving
Coordinates 57° 12' 12.00" N, 2° 12' 27.00" W
Runways
Designator Length Width Surface ROPS
5/23 577 m1,893.045 ft <br /> 46 m150.919 ft <br /> CON yes/yes
14/32 660 m2,165.354 ft <br /> 23 m75.459 ft <br /> ASP yes/yes
16/34 1829 m6,000.656 ft <br /> 46 m150.919 ft <br /> ASP yes/yes
18/36 260 m853.018 ft <br /> 23 m75.459 ft <br /> ASP no/no


METAR
Observation EGPD 160150Z AUTO 24007KT 9999 OVC048 05/00 Q1018 NOSIG
Station Aberdeen / Dyce
Date/Time 16 October 2021 01:50:00
Wind direction 240°
Wind speed 07 kts
Lowest cloud amount overcast
Temperature 5°C
Dew point 0°C
Humidity 70%
QNH 1018 hPa
Weather condition n/a